Time;durP1;ratioP1;P1;durP2;ratioP2;P2;SDS_P1;SDS_P2;PMS_P1;PMS_P2;Temp;Humidity;BMP_temperature;BMP_pressure;BME280_temperature;BME280_humidity;BME280_pressure;Samples;Min_cycle;Max_cycle;Signal;HPM_P1;HPM_P2
2022/05/17 00:02:22;;;;;;;1.83;0.30;;;25.70;91.90;;;;;;5043072;28;20036;-73
2022/05/17 00:04:50;;;;;;;1.50;0.50;;;26.00;91.10;;;;;;5046232;28;20032;-72
2022/05/17 00:07:19;;;;;;;4.40;0.60;;;26.40;90.40;;;;;;5050815;28;20052;-73
2022/05/17 00:09:47;;;;;;;1.98;0.30;;;26.50;90.80;;;;;;5048214;28;20021;-73
2022/05/17 00:12:14;;;;;;;0.98;0.30;;;26.60;89.40;;;;;;5033963;28;20377;-73
2022/05/17 00:14:41;;;;;;;1.83;0.32;;;26.90;86.20;;;;;;5034590;28;20716;-72
2022/05/17 00:17:09;;;;;;;3.05;0.40;;;26.60;86.60;;;;;;5039292;28;20029;-72
2022/05/17 00:19:37;;;;;;;1.33;0.20;;;26.60;85.80;;;;;;5028485;28;20087;-72
2022/05/17 00:22:05;;;;;;;4.00;0.32;;;26.90;86.20;;;;;;5028954;28;20060;-73
2022/05/17 00:24:32;;;;;;;0.60;0.20;;;27.50;84.80;;;;;;5041986;28;20022;-71
2022/05/17 00:26:59;;;;;;;3.47;0.70;;;27.60;85.20;;;;;;5035173;28;20497;-72
2022/05/17 00:29:27;;;;;;;4.25;1.48;;;27.50;81.80;;;;;;5043301;28;20120;-71
2022/05/17 00:31:54;;;;;;;2.17;0.30;;;27.80;82.90;;;;;;5030005;28;20038;-72
2022/05/17 00:34:23;;;;;;;4.63;0.82;;;28.30;81.30;;;;;;5031717;28;20033;-72
2022/05/17 00:36:50;;;;;;;0.65;0.20;;;28.20;81.40;;;;;;5032209;28;20025;-72
2022/05/17 00:39:18;;;;;;;5.00;0.93;;;28.30;81.90;;;;;;5029620;28;20030;-72
2022/05/17 00:41:47;;;;;;;0.90;0.20;;;28.50;80.80;;;;;;5032866;28;20113;-72
2022/05/17 00:47:10;;;;;;;0.70;0.20;;;28.20;79.60;;;;;;5031878;28;20036;-71
2022/05/17 00:49:45;;;;;;;1.50;0.20;;;28.30;77.20;;;;;;5034273;28;20032;-72
2022/05/17 00:52:26;;;;;;;0.30;0.15;;;27.60;79.40;;;;;;5035065;28;20025;-72
2022/05/17 00:54:57;;;;;;;2.72;0.40;;;27.60;78.90;;;;;;5029226;28;20079;-72
2022/05/17 00:57:35;;;;;;;1.02;0.38;;;27.50;79.50;;;;;;5032330;28;20033;-72
2022/05/17 01:00:12;;;;;;;1.77;0.35;;;27.60;79.80;;;;;;5031217;28;20103;-72
2022/05/17 01:02:43;;;;;;;2.70;0.30;;;27.50;79.00;;;;;;5030615;28;20025;-72
2022/05/17 01:05:10;;;;;;;3.53;0.82;;;27.00;79.90;;;;;;5032062;28;20022;-71
2022/05/17 01:07:44;;;;;;;2.08;0.25;;;26.70;80.20;;;;;;5029488;28;20295;-71
2022/05/17 01:10:12;;;;;;;3.95;0.50;;;26.60;82.20;;;;;;5031124;28;20033;-72
2022/05/17 01:12:40;;;;;;;1.60;0.95;;;26.50;78.40;;;;;;5026548;28;20025;-72
2022/05/17 01:15:11;;;;;;;1.23;0.10;;;26.80;78.50;;;;;;5029762;28;20038;-72
2022/05/17 01:17:41;;;;;;;0.73;0.20;;;26.70;78.70;;;;;;5034287;28;20028;-72
2022/05/17 01:20:12;;;;;;;4.05;0.30;;;27.00;79.20;;;;;;5034883;28;20029;-72
2022/05/17 01:22:39;;;;;;;1.27;0.20;;;26.80;77.90;;;;;;5031016;28;20039;-72
2022/05/17 01:25:07;;;;;;;1.75;0.17;;;26.70;78.50;;;;;;5030969;28;20026;-72
2022/05/17 01:27:40;;;;;;;1.38;0.25;;;26.90;77.20;;;;;;5033731;28;20021;-72
2022/05/17 01:30:14;;;;;;;0.63;0.20;;;26.50;77.60;;;;;;5032563;28;20167;-72
2022/05/17 01:32:41;;;;;;;0.57;0.20;;;27.00;80.10;;;;;;5033058;28;20025;-72
2022/05/17 01:35:09;;;;;;;0.30;0.25;;;27.40;76.50;;;;;;5040790;28;20074;-72
2022/05/17 01:37:37;;;;;;;0.55;0.13;;;28.10;79.00;;;;;;5052594;28;20107;-72
2022/05/17 01:40:05;;;;;;;1.15;0.30;;;28.80;78.90;;;;;;5048560;28;20421;-73
2022/05/17 01:42:33;;;;;;;1.83;0.65;;;29.40;74.00;;;;;;5037966;28;20082;-72
2022/05/17 01:45:00;;;;;;;1.20;0.30;;;29.60;74.30;;;;;;5031102;28;21808;-73
2022/05/17 01:47:29;;;;;;;1.80;0.38;;;29.90;73.60;;;;;;5034368;28;20103;-72
2022/05/17 01:49:56;;;;;;;3.30;0.63;;;29.90;72.80;;;;;;5043805;28;20094;-72
2022/05/17 01:52:24;;;;;;;2.35;0.40;;;30.10;73.40;;;;;;5036535;28;20025;-72
2022/05/17 01:54:51;;;;;;;0.38;0.15;;;30.00;72.70;;;;;;5040500;28;20052;-72
2022/05/17 01:57:20;;;;;;;0.73;0.10;;;30.00;71.60;;;;;;5053560;28;20432;-71
2022/05/17 01:59:47;;;;;;;1.55;0.45;;;29.90;72.70;;;;;;5032745;28;20142;-71
2022/05/17 02:02:14;;;;;;;0.80;0.57;;;30.10;72.80;;;;;;5032897;28;20060;-71
2022/05/17 02:04:42;;;;;;;0.75;0.20;;;29.40;73.80;;;;;;5034810;28;20083;-73
2022/05/17 02:07:10;;;;;;;0.90;0.20;;;29.10;73.70;;;;;;5034387;28;20033;-71
2022/05/17 02:09:37;;;;;;;0.85;0.30;;;28.80;75.30;;;;;;5031785;28;20055;-71
2022/05/17 02:12:05;;;;;;;3.15;0.10;;;28.80;74.10;;;;;;5034901;28;20030;-71
2022/05/17 02:14:32;;;;;;;0.80;0.30;;;28.80;75.70;;;;;;5031607;28;20021;-71
2022/05/17 02:17:02;;;;;;;0.77;0.20;;;29.30;75.20;;;;;;5043113;28;20360;-71
2022/05/17 02:19:30;;;;;;;0.60;0.20;;;29.40;74.70;;;;;;5045188;28;20025;-70
2022/05/17 02:21:58;;;;;;;0.43;0.30;;;29.70;75.80;;;;;;5040152;28;20064;-70
2022/05/17 02:24:27;;;;;;;1.08;0.22;;;29.90;72.30;;;;;;5033843;28;20026;-70
2022/05/17 02:26:55;;;;;;;1.50;0.30;;;30.10;73.00;;;;;;5050568;28;20040;-70
2022/05/17 02:29:23;;;;;;;0.40;0.10;;;29.80;72.60;;;;;;5039989;28;20033;-71
2022/05/17 02:31:52;;;;;;;0.82;0.30;;;29.20;70.90;;;;;;5048949;28;20033;-70
2022/05/17 02:34:20;;;;;;;2.08;0.10;;;29.20;72.40;;;;;;5050526;28;20018;-72
2022/05/17 02:36:47;;;;;;;1.25;0.10;;;29.00;73.60;;;;;;5042412;28;20026;-70
2022/05/17 02:39:15;;;;;;;2.47;0.35;;;28.90;73.10;;;;;;5034097;28;20115;-72
2022/05/17 02:41:43;;;;;;;2.22;0.80;;;28.90;73.10;;;;;;5050073;28;20217;-72
2022/05/17 02:44:10;;;;;;;0.52;0.10;;;28.80;73.60;;;;;;5049934;28;20021;-70
2022/05/17 02:46:37;;;;;;;0.55;0.20;;;28.80;73.90;;;;;;5042978;28;20061;-72
2022/05/17 02:49:07;;;;;;;0.47;0.10;;;28.60;73.40;;;;;;5037850;28;20080;-71
2022/05/17 02:51:35;;;;;;;2.75;0.15;;;28.50;72.30;;;;;;5046915;28;20031;-72
2022/05/17 02:54:05;;;;;;;1.15;0.10;;;28.50;72.40;;;;;;5038919;28;20475;-72
2022/05/17 02:56:34;;;;;;;0.17;0.10;;;27.90;70.80;;;;;;5031796;28;20044;-72
2022/05/17 02:59:01;;;;;;;0.40;0.30;;;27.80;72.80;;;;;;5040859;28;20029;-72
2022/05/17 03:01:29;;;;;;;0.32;0.13;;;27.70;73.70;;;;;;5043500;28;20040;-72
2022/05/17 03:03:56;;;;;;;0.98;0.43;;;27.80;73.20;;;;;;5050883;28;20099;-72
2022/05/17 03:06:24;;;;;;;1.35;0.30;;;27.70;73.10;;;;;;5050361;28;20044;-70
2022/05/17 03:08:51;;;;;;;1.50;0.20;;;27.50;71.00;;;;;;5042656;28;20037;-71
2022/05/17 03:11:19;;;;;;;1.15;0.10;;;27.40;71.80;;;;;;5037709;28;20075;-71
2022/05/17 03:13:46;;;;;;;1.63;0.30;;;26.90;72.80;;;;;;5031494;28;20067;-71
2022/05/17 03:16:15;;;;;;;1.98;0.52;;;26.70;73.70;;;;;;5034899;28;20120;-70
2022/05/17 03:18:43;;;;;;;1.17;0.85;;;26.70;73.40;;;;;;5041431;28;20510;-71
2022/05/17 03:21:10;;;;;;;1.63;0.38;;;26.60;72.80;;;;;;5039300;28;20159;-71
2022/05/17 03:23:38;;;;;;;0.93;0.63;;;26.20;72.30;;;;;;5029929;28;20033;-71
2022/05/17 03:26:05;;;;;;;0.98;0.15;;;25.70;74.00;;;;;;5038603;28;20035;-71
2022/05/17 03:28:33;;;;;;;3.03;0.15;;;25.20;73.80;;;;;;5040456;28;20030;-71
2022/05/17 03:31:00;;;;;;;0.30;0.10;;;24.90;75.70;;;;;;5025736;28;20128;-71
2022/05/17 03:33:27;;;;;;;0.70;0.22;;;24.60;75.80;;;;;;5034733;28;20037;-71
2022/05/17 03:35:55;;;;;;;6.72;0.40;;;24.40;76.50;;;;;;5031188;28;20035;-72
2022/05/17 03:38:22;;;;;;;1.77;0.17;;;24.20;76.40;;;;;;5033109;28;20027;-71
2022/05/17 03:40:50;;;;;;;0.52;0.17;;;23.90;75.70;;;;;;5033328;28;20032;-71
2022/05/17 03:43:19;;;;;;;2.38;0.20;;;23.50;77.50;;;;;;5032596;28;20798;-71
2022/05/17 03:45:50;;;;;;;1.90;0.13;;;23.20;77.80;;;;;;5034526;28;20043;-71
2022/05/17 03:48:17;;;;;;;0.65;0.10;;;23.00;77.50;;;;;;5036034;28;20056;-72
2022/05/17 03:50:45;;;;;;;0.10;0.10;;;22.90;78.80;;;;;;5030648;28;20471;-71
2022/05/17 03:53:12;;;;;;;0.22;0.10;;;22.90;78.80;;;;;;5034157;28;20037;-71
2022/05/17 03:55:40;;;;;;;0.45;0.10;;;22.90;78.20;;;;;;5029175;28;20021;-70
2022/05/17 03:58:07;;;;;;;1.60;0.15;;;22.90;80.10;;;;;;5031622;28;20388;-71
2022/05/17 04:00:36;;;;;;;0.85;0.55;;;22.80;78.50;;;;;;5030521;28;20029;-72
2022/05/17 04:03:04;;;;;;;2.60;0.30;;;22.60;78.10;;;;;;5035486;28;20076;-71
2022/05/17 04:05:31;;;;;;;6.30;0.32;;;22.50;79.40;;;;;;5033646;28;20115;-71
2022/05/17 04:07:59;;;;;;;0.20;0.00;;;22.30;79.80;;;;;;5033275;28;20052;-72
2022/05/17 04:10:26;;;;;;;3.70;0.17;;;22.30;80.60;;;;;;5035192;28;20656;-72
2022/05/17 04:12:54;;;;;;;0.73;0.40;;;22.10;81.60;;;;;;5041834;28;20029;-71
2022/05/17 04:15:23;;;;;;;2.97;0.30;;;22.10;82.10;;;;;;5035132;28;20051;-72
2022/05/17 04:17:51;;;;;;;0.90;0.20;;;22.00;80.90;;;;;;5037896;28;20372;-71
2022/05/17 04:20:19;;;;;;;1.88;0.20;;;21.90;81.20;;;;;;5033795;28;20533;-72
2022/05/17 04:22:48;;;;;;;0.25;0.20;;;21.80;81.40;;;;;;5031594;28;20021;-71
2022/05/17 04:25:20;;;;;;;1.60;0.82;;;21.80;80.70;;;;;;5030587;28;20168;-71
2022/05/17 04:27:47;;;;;;;2.65;0.82;;;21.80;82.20;;;;;;5033284;28;20065;-71
2022/05/17 04:30:16;;;;;;;0.75;0.25;;;21.70;81.60;;;;;;5029948;28;20483;-72
2022/05/17 04:32:44;;;;;;;1.83;0.30;;;21.70;82.40;;;;;;5030458;28;20048;-72
2022/05/17 04:35:13;;;;;;;1.02;0.20;;;21.60;83.50;;;;;;5030839;28;20043;-72
2022/05/17 04:37:40;;;;;;;0.50;0.20;;;21.60;81.70;;;;;;5028797;28;20039;-70
2022/05/17 04:40:09;;;;;;;0.60;0.20;;;21.50;82.20;;;;;;5030260;28;21863;-70
2022/05/17 04:42:41;;;;;;;0.38;0.10;;;21.40;83.10;;;;;;5034480;28;20033;-71
2022/05/17 04:45:11;;;;;;;1.48;0.20;;;21.20;82.30;;;;;;5029987;28;20439;-72
2022/05/17 04:47:44;;;;;;;0.40;0.17;;;21.10;82.90;;;;;;5030103;28;20080;-71
2022/05/17 04:50:13;;;;;;;1.67;0.30;;;21.00;82.30;;;;;;5032343;28;20048;-71
2022/05/17 04:52:40;;;;;;;2.20;0.20;;;21.00;82.90;;;;;;5029322;28;20134;-70
2022/05/17 04:55:10;;;;;;;1.17;0.28;;;21.00;83.60;;;;;;5032091;28;20036;-71
2022/05/17 04:57:38;;;;;;;0.63;0.10;;;20.90;82.80;;;;;;5030372;28;20025;-71
2022/05/17 05:00:11;;;;;;;0.50;0.10;;;20.90;81.80;;;;;;5035240;28;20070;-71
2022/05/17 05:02:39;;;;;;;1.35;0.20;;;20.80;82.00;;;;;;5036733;28;20041;-71
2022/05/17 05:05:07;;;;;;;0.93;0.38;;;20.80;83.10;;;;;;5030452;28;20505;-71
2022/05/17 05:07:34;;;;;;;2.25;0.30;;;20.80;84.50;;;;;;5035999;28;21941;-72
2022/05/17 05:10:03;;;;;;;1.80;0.50;;;20.80;85.90;;;;;;5064657;28;20029;-71
2022/05/17 05:12:31;;;;;;;1.08;0.15;;;20.80;83.40;;;;;;5054236;28;20481;-71
2022/05/17 05:14:59;;;;;;;0.82;0.20;;;20.80;85.20;;;;;;5044412;28;20033;-71
2022/05/17 05:17:33;;;;;;;0.20;0.10;;;20.80;86.80;;;;;;5034214;28;20026;-71
2022/05/17 05:20:01;;;;;;;0.47;0.17;;;20.80;84.80;;;;;;5044785;28;20116;-71
2022/05/17 05:22:31;;;;;;;3.50;0.43;;;20.80;86.10;;;;;;5046345;28;20376;-71
2022/05/17 05:24:58;;;;;;;1.55;0.10;;;20.90;86.00;;;;;;5040347;28;20163;-71
2022/05/17 05:27:26;;;;;;;0.50;0.40;;;20.80;86.30;;;;;;5034352;28;20018;-71
2022/05/17 05:29:53;;;;;;;2.00;0.30;;;20.90;87.00;;;;;;5038591;28;20124;-71
2022/05/17 05:32:20;;;;;;;0.47;0.13;;;20.90;85.60;;;;;;5053584;28;20041;-71
2022/05/17 05:34:48;;;;;;;0.40;0.10;;;20.90;84.50;;;;;;5044579;28;20110;-72
2022/05/17 05:37:16;;;;;;;2.53;0.40;;;21.00;85.10;;;;;;5039681;28;20033;-70
2022/05/17 05:39:43;;;;;;;2.72;0.20;;;21.00;85.80;;;;;;5038362;28;20017;-71
2022/05/17 05:42:11;;;;;;;0.25;0.00;;;21.00;85.40;;;;;;5036343;28;20067;-72
2022/05/17 05:44:38;;;;;;;1.23;0.55;;;21.00;85.90;;;;;;5042677;28;20022;-72
2022/05/17 05:47:06;;;;;;;1.75;0.28;;;21.10;85.70;;;;;;5032412;28;20037;-71
2022/05/17 05:49:33;;;;;;;0.35;0.20;;;21.20;86.40;;;;;;5032292;28;20033;-71
2022/05/17 05:52:01;;;;;;;0.40;0.20;;;21.20;86.60;;;;;;5032277;28;20491;-71
2022/05/17 05:54:28;;;;;;;0.75;0.30;;;21.30;84.40;;;;;;5032535;28;20089;-71
2022/05/17 05:57:00;;;;;;;2.05;0.63;;;21.40;85.20;;;;;;5040184;28;20025;-71
2022/05/17 05:59:30;;;;;;;1.13;0.15;;;21.40;84.90;;;;;;5049239;28;20025;-71
2022/05/17 06:01:57;;;;;;;0.45;0.20;;;21.40;84.20;;;;;;5050487;28;20060;-71
2022/05/17 06:04:28;;;;;;;1.60;0.20;;;21.40;85.90;;;;;;5048785;28;20048;-71
2022/05/17 06:06:56;;;;;;;0.75;0.20;;;21.50;86.00;;;;;;5049185;28;20025;-71
2022/05/17 06:09:25;;;;;;;2.08;0.50;;;21.50;85.40;;;;;;5047612;28;20036;-71
2022/05/17 06:11:53;;;;;;;1.15;0.15;;;21.60;85.80;;;;;;5052333;28;20036;-71
2022/05/17 06:14:20;;;;;;;1.08;0.75;;;21.60;85.00;;;;;;5050888;28;20380;-71
2022/05/17 06:16:49;;;;;;;0.80;0.10;;;21.60;84.20;;;;;;5048780;28;20162;-71
2022/05/17 06:19:17;;;;;;;2.97;0.20;;;21.60;83.80;;;;;;5041884;28;20483;-71
2022/05/17 06:21:44;;;;;;;2.78;0.80;;;21.60;84.00;;;;;;5052753;28;20388;-71
2022/05/17 06:24:12;;;;;;;2.97;0.30;;;21.50;84.40;;;;;;5050860;28;20021;-71
2022/05/17 06:26:39;;;;;;;2.72;0.80;;;21.40;84.80;;;;;;5048010;28;20131;-71
2022/05/17 06:29:07;;;;;;;1.65;0.38;;;21.30;85.10;;;;;;5043399;28;20041;-71
2022/05/17 06:31:34;;;;;;;3.95;0.30;;;21.10;86.80;;;;;;5052526;28;20036;-71
2022/05/17 06:34:01;;;;;;;2.55;0.30;;;21.00;87.00;;;;;;5034804;28;20071;-71
2022/05/17 06:36:29;;;;;;;1.58;0.30;;;20.80;88.10;;;;;;5038844;28;20036;-71
2022/05/17 06:38:56;;;;;;;0.75;0.10;;;20.60;88.90;;;;;;5042828;28;20546;-71
2022/05/17 06:41:23;;;;;;;0.60;0.20;;;20.40;89.70;;;;;;5041494;28;20028;-71
2022/05/17 06:43:51;;;;;;;1.08;0.25;;;20.20;90.00;;;;;;5038828;28;20022;-71
2022/05/17 06:46:18;;;;;;;0.28;0.25;;;20.00;90.60;;;;;;5032711;28;23602;-70
2022/05/17 06:48:46;;;;;;;0.63;0.20;;;19.80;90.70;;;;;;5037114;28;20483;-71
2022/05/17 06:51:13;;;;;;;0.25;0.17;;;19.60;91.00;;;;;;5049812;28;20067;-71
2022/05/17 06:53:41;;;;;;;1.30;0.35;;;19.50;91.40;;;;;;5044233;28;20033;-71
2022/05/17 06:56:09;;;;;;;0.85;0.32;;;19.30;91.80;;;;;;5037694;28;20037;-71
2022/05/17 06:58:36;;;;;;;1.75;0.10;;;19.20;92.00;;;;;;5050510;28;20024;-71
2022/05/17 07:01:04;;;;;;;1.63;0.52;;;19.00;92.00;;;;;;5049869;28;20684;-71
2022/05/17 07:03:31;;;;;;;0.50;0.25;;;18.80;92.20;;;;;;5052162;28;20067;-71
2022/05/17 07:05:58;;;;;;;0.20;0.10;;;18.70;92.60;;;;;;5050542;28;20033;-71
2022/05/17 07:08:26;;;;;;;0.22;0.17;;;18.60;91.60;;;;;;5035554;28;20041;-71
2022/05/17 07:13:38;;;;;;;0.50;0.25;;;18.40;92.80;;;;;;5043705;28;20049;-71
2022/05/17 07:16:05;;;;;;;1.23;0.20;;;18.30;92.80;;;;;;5039331;28;20063;-71
2022/05/17 07:18:34;;;;;;;0.35;0.30;;;18.10;93.20;;;;;;5036693;28;20025;-71
2022/05/17 07:21:01;;;;;;;1.08;0.10;;;18.00;92.90;;;;;;5033032;28;20033;-72
2022/05/17 07:23:28;;;;;;;0.32;0.10;;;17.80;93.00;;;;;;5060556;28;20048;-71
2022/05/17 07:25:56;;;;;;;0.90;0.30;;;17.80;92.90;;;;;;5033757;28;20163;-72
2022/05/17 07:28:24;;;;;;;2.95;0.65;;;17.70;93.70;;;;;;5032852;28;20113;-70
2022/05/17 07:30:52;;;;;;;2.13;0.65;;;17.60;94.20;;;;;;5044195;28;20775;-71
2022/05/17 07:33:20;;;;;;;4.10;0.88;;;17.50;94.30;;;;;;5035553;28;20028;-72
2022/05/17 07:35:48;;;;;;;1.88;0.50;;;17.50;94.70;;;;;;5041402;28;20031;-71
2022/05/17 07:38:18;;;;;;;2.03;0.20;;;17.40;95.00;;;;;;5046431;28;20036;-71
2022/05/17 07:40:45;;;;;;;1.73;0.30;;;17.30;94.40;;;;;;5045492;28;20022;-72
2022/05/17 07:43:14;;;;;;;0.95;0.20;;;17.20;94.50;;;;;;5046986;28;20764;-71
2022/05/17 07:45:41;;;;;;;1.45;0.52;;;17.20;94.00;;;;;;5046685;28;20379;-71
2022/05/17 07:48:09;;;;;;;5.70;0.60;;;17.10;93.70;;;;;;5035502;28;20064;-71
2022/05/17 07:50:36;;;;;;;2.55;1.60;;;17.10;93.00;;;;;;5044528;28;20033;-71
2022/05/17 07:53:08;;;;;;;7.50;2.97;;;17.10;92.50;;;;;;5051224;28;20422;-70
2022/05/17 07:55:37;;;;;;;4.55;2.13;;;17.00;91.90;;;;;;5048035;28;20029;-70
2022/05/17 07:58:06;;;;;;;4.22;1.30;;;17.10;91.80;;;;;;5047041;28;20849;-70
2022/05/17 08:00:34;;;;;;;3.78;1.63;;;17.00;92.40;;;;;;5042867;28;20036;-71
2022/05/17 08:03:04;;;;;;;3.00;1.58;;;17.00;92.70;;;;;;5051190;28;20104;-71
2022/05/17 08:05:32;;;;;;;3.35;1.85;;;16.90;92.80;;;;;;5046410;28;20399;-70
2022/05/17 08:07:59;;;;;;;1.67;1.00;;;16.90;93.10;;;;;;5051188;28;20071;-68
2022/05/17 08:10:26;;;;;;;1.70;1.10;;;16.80;92.90;;;;;;5048301;28;20039;-70
2022/05/17 08:12:54;;;;;;;2.15;1.48;;;16.80;93.20;;;;;;5049359;28;20037;-70
2022/05/17 08:15:23;;;;;;;6.05;1.23;;;16.80;93.60;;;;;;5048077;28;20040;-72
2022/05/17 08:17:51;;;;;;;4.43;1.05;;;16.70;94.00;;;;;;5044184;28;20029;-71
2022/05/17 08:20:19;;;;;;;6.63;1.80;;;16.70;94.40;;;;;;5032322;28;20033;-70
2022/05/17 08:22:47;;;;;;;2.40;1.20;;;16.60;94.90;;;;;;5044519;28;20024;-71
2022/05/17 08:28:04;;;;;;;1.00;0.50;;;16.50;95.20;;;;;;5037952;28;20040;-70
2022/05/17 08:30:32;;;;;;;2.00;0.50;;;16.30;95.10;;;;;;5031152;28;20033;-70
2022/05/17 08:33:17;;;;;;;1.30;0.40;;;16.30;95.00;;;;;;5040550;28;20067;-71
2022/05/17 08:36:05;;;;;;;4.05;0.50;;;16.20;95.00;;;;;;5035220;28;20036;-70
2022/05/17 08:38:34;;;;;;;2.75;0.38;;;16.10;95.00;;;;;;5038373;28;20480;-70
2022/05/17 08:41:14;;;;;;;4.25;1.02;;;16.10;95.30;;;;;;5038682;28;20034;-70
2022/05/17 08:43:52;;;;;;;4.57;1.75;;;16.00;95.50;;;;;;5042994;28;20044;-72
2022/05/17 08:46:39;;;;;;;2.67;0.68;;;16.00;95.70;;;;;;5035404;28;20025;-70
2022/05/17 08:49:24;;;;;;;1.67;0.50;;;15.90;95.90;;;;;;5033993;28;20068;-72
2022/05/17 08:52:07;;;;;;;3.65;0.60;;;15.80;96.10;;;;;;5031361;28;20054;-72
2022/05/17 08:54:42;;;;;;;2.33;0.80;;;15.80;96.60;;;;;;5033654;28;20037;-72
2022/05/17 08:57:36;;;;;;;3.83;0.80;;;15.70;96.80;;;;;;5034892;28;20108;-73
2022/05/17 09:00:37;;;;;;;3.88;0.98;;;15.60;97.20;;;;;;5038358;28;20033;-72
2022/05/17 09:03:25;;;;;;;3.33;0.77;;;15.50;97.10;;;;;;5035134;28;20037;-73
2022/05/17 09:05:58;;;;;;;2.13;1.35;;;15.50;97.20;;;;;;5031202;28;20037;-72
2022/05/17 09:08:33;;;;;;;5.03;0.77;;;15.40;97.80;;;;;;5044056;28;20123;-73
2022/05/17 09:11:17;;;;;;;1.13;0.60;;;15.40;98.30;;;;;;5046369;28;20033;-72
2022/05/17 09:14:02;;;;;;;2.63;0.90;;;15.30;98.50;;;;;;5043548;28;20499;-72
2022/05/17 09:16:40;;;;;;;4.13;1.43;;;15.20;98.40;;;;;;5038458;28;20036;-70
2022/05/17 09:19:08;;;;;;;2.20;0.98;;;15.10;98.60;;;;;;5048024;28;20258;-70
2022/05/17 09:21:39;;;;;;;3.45;1.65;;;15.00;98.40;;;;;;5046872;28;20434;-71
2022/05/17 09:24:14;;;;;;;3.08;1.70;;;14.90;98.70;;;;;;5035141;28;20892;-72
2022/05/17 09:26:51;;;;;;;5.22;2.90;;;14.90;98.50;;;;;;5044184;28;20032;-70
2022/05/17 09:29:31;;;;;;;5.03;2.85;;;14.80;98.90;;;;;;5047404;28;20388;-70
2022/05/17 09:32:06;;;;;;;6.20;2.70;;;14.80;98.90;;;;;;5044983;28;20112;-70
2022/05/17 09:34:45;;;;;;;8.90;2.80;;;14.70;99.00;;;;;;5041377;28;20403;-72
2022/05/17 09:37:19;;;;;;;4.80;2.13;;;14.60;99.00;;;;;;5030825;28;20755;-70
2022/05/17 09:39:51;;;;;;;5.57;1.58;;;14.60;99.10;;;;;;5035604;28;20029;-70
2022/05/17 09:42:31;;;;;;;4.05;2.60;;;14.50;98.80;;;;;;5042511;28;20131;-71
2022/05/17 09:45:02;;;;;;;6.55;4.07;;;14.40;99.30;;;;;;5047150;28;20033;-71
2022/05/17 09:47:42;;;;;;;4.60;3.08;;;14.40;99.00;;;;;;5043571;28;20122;-72
2022/05/17 09:53:14;;;;;;;5.57;2.88;;;14.40;98.40;;;;;;5033305;28;20672;-71
2022/05/17 09:55:46;;;;;;;5.28;3.05;;;14.40;98.50;;;;;;5048259;28;20052;-72
2022/05/17 09:58:33;;;;;;;6.95;1.90;;;14.30;98.70;;;;;;5047261;28;20114;-72
2022/05/17 10:01:07;;;;;;;3.50;1.10;;;14.20;99.00;;;;;;5036737;28;20052;-71
2022/05/17 10:03:38;;;;;;;6.50;1.63;;;14.20;99.30;;;;;;5048582;28;20112;-71
2022/05/17 10:06:29;;;;;;;2.95;1.05;;;14.10;99.30;;;;;;5041907;28;20087;-71
2022/05/17 10:09:12;;;;;;;3.72;0.80;;;14.10;99.70;;;;;;5048761;28;20049;-72
2022/05/17 10:12:00;;;;;;;1.13;0.50;;;14.10;99.90;;;;;;5043779;28;20080;-72
2022/05/17 10:14:36;;;;;;;1.63;0.60;;;14.00;99.90;;;;;;5035322;28;20108;-71
2022/05/17 10:17:15;;;;;;;1.25;0.57;;;13.90;99.90;;;;;;5048409;28;20384;-71
2022/05/17 10:19:53;;;;;;;1.08;0.73;;;13.80;99.90;;;;;;5043912;28;20017;-72
2022/05/17 10:22:32;;;;;;;1.48;1.13;;;13.70;99.90;;;;;;5036617;28;20047;-72
2022/05/17 10:25:04;;;;;;;3.33;0.77;;;13.60;99.90;;;;;;5039707;28;20051;-72
2022/05/17 10:27:42;;;;;;;1.50;0.95;;;13.50;99.90;;;;;;5045307;28;20038;-72
2022/05/17 10:30:31;;;;;;;6.18;3.20;;;13.30;99.90;;;;;;5031009;28;20051;-71
2022/05/17 10:33:06;;;;;;;20.42;14.65;;;13.30;99.90;;;;;;5044956;28;20063;-72
2022/05/17 10:35:49;;;;;;;22.58;15.68;;;13.20;99.90;;;;;;5043922;28;20024;-72
2022/05/17 10:38:54;;;;;;;15.20;10.95;;;13.20;99.90;;;;;;5044661;28;20033;-71
2022/05/17 10:41:24;;;;;;;6.95;4.70;;;13.10;99.90;;;;;;5050527;28;20037;-72
2022/05/17 10:43:53;;;;;;;6.05;4.72;;;13.00;99.90;;;;;;5034713;28;20041;-72
2022/05/17 10:46:32;;;;;;;8.40;5.75;;;12.90;99.90;;;;;;5034117;28;20036;-73
2022/05/17 10:49:20;;;;;;;7.90;4.78;;;12.90;99.90;;;;;;5033039;28;20055;-72
2022/05/17 10:51:58;;;;;;;4.65;3.15;;;12.80;99.90;;;;;;5043956;28;20025;-72
2022/05/17 10:54:44;;;;;;;4.50;3.30;;;12.70;99.90;;;;;;5033764;28;20036;-72
2022/05/17 10:57:11;;;;;;;5.20;1.80;;;12.60;99.90;;;;;;5033772;28;20029;-72
2022/05/17 10:59:56;;;;;;;5.55;2.05;;;12.50;99.90;;;;;;5030792;28;20038;-72
2022/05/17 11:02:52;;;;;;;2.67;1.90;;;12.40;99.90;;;;;;5033226;28;20116;-72
2022/05/17 11:05:56;;;;;;;5.15;2.85;;;12.50;99.90;;;;;;5015684;28;20503;-72
2022/05/17 11:08:40;;;;;;;2.88;1.33;;;12.50;99.90;;;;;;5034714;28;20043;-72
2022/05/17 11:11:41;;;;;;;2.55;1.50;;;12.40;99.90;;;;;;5044244;28;20114;-72
2022/05/17 11:14:21;;;;;;;2.70;1.88;;;12.40;99.90;;;;;;5038841;28;20039;-73
2022/05/17 11:17:08;;;;;;;3.30;2.63;;;12.30;99.90;;;;;;5040053;28;20037;-72
2022/05/17 11:19:35;;;;;;;;;;;12.30;99.90;;;;;;5038797;28;20644;-73
2022/05/17 11:22:31;;;;;;;5.82;2.45;;;12.20;99.90;;;;;;5039808;28;19992;-71
2022/05/17 11:25:19;;;;;;;4.38;2.72;;;12.10;99.90;;;;;;5039669;28;20430;-71
2022/05/17 11:28:17;;;;;;;5.65;2.90;;;12.10;99.90;;;;;;5044181;28;20025;-71
2022/05/17 11:31:11;;;;;;;2.95;2.00;;;12.00;99.90;;;;;;5035938;28;20032;-70
2022/05/17 11:33:40;;;;;;;2.92;1.80;;;12.00;99.90;;;;;;5035955;28;20813;-71
2022/05/17 11:36:33;;;;;;;3.25;1.23;;;12.00;99.90;;;;;;5046200;28;20231;-71
2022/05/17 11:39:01;;;;;;;1.65;0.60;;;12.00;99.90;;;;;;5035380;28;20765;-70
2022/05/17 11:41:34;;;;;;;1.15;0.77;;;11.90;99.90;;;;;;5032751;28;20033;-70
2022/05/17 11:44:07;;;;;;;4.13;1.58;;;11.90;99.90;;;;;;5033211;28;20033;-70
2022/05/17 11:46:46;;;;;;;5.45;1.88;;;11.90;99.90;;;;;;5035925;28;20017;-70
2022/05/17 11:49:14;;;;;;;2.67;0.98;;;11.90;99.90;;;;;;5033780;28;20055;-70
2022/05/17 11:52:01;;;;;;;7.35;2.33;;;11.80;99.90;;;;;;5037908;28;20056;-70
2022/05/17 11:54:45;;;;;;;2.72;0.85;;;11.70;99.90;;;;;;5039740;28;20329;-70
2022/05/17 11:57:42;;;;;;;3.22;1.30;;;11.60;99.90;;;;;;5041524;28;20029;-69
2022/05/17 12:00:32;;;;;;;2.08;0.90;;;11.60;99.90;;;;;;5032862;28;20135;-70
2022/05/17 12:03:04;;;;;;;2.50;1.08;;;11.50;99.90;;;;;;5033955;28;20045;-70
2022/05/17 12:05:47;;;;;;;2.03;0.70;;;11.40;99.90;;;;;;5044445;28;20032;-71
2022/05/17 12:08:32;;;;;;;2.75;0.80;;;11.40;99.90;;;;;;5031772;28;20036;-70
2022/05/17 12:11:37;;;;;;;4.82;1.20;;;11.30;99.90;;;;;;5036544;28;20136;-71
2022/05/17 12:14:13;;;;;;;5.18;1.30;;;11.30;99.90;;;;;;5031428;28;20059;-71
2022/05/17 12:16:51;;;;;;;2.28;0.90;;;11.30;99.90;;;;;;5041150;28;20387;-71
2022/05/17 12:19:29;;;;;;;7.03;1.30;;;11.20;99.90;;;;;;5036959;28;20033;-71
2022/05/17 12:22:30;;;;;;;1.88;1.05;;;11.20;99.90;;;;;;5038939;28;20043;-71
2022/05/17 12:25:15;;;;;;;1.92;0.85;;;11.10;99.90;;;;;;5038421;28;20032;-72
2022/05/17 12:27:44;;;;;;;2.88;1.05;;;11.00;99.90;;;;;;5039083;28;20014;-71
2022/05/17 12:33:29;;;;;;;3.25;0.73;;;11.00;99.90;;;;;;5030202;28;20045;-72
2022/05/17 12:36:20;;;;;;;1.23;0.40;;;10.90;99.90;;;;;;5039903;28;20104;-70
2022/05/17 12:45:01;;;;;;;1.40;0.80;;;10.70;99.90;;;;;;5043275;28;20036;-72
2022/05/17 12:47:33;;;;;;;1.35;0.70;;;10.60;99.90;;;;;;5032717;28;20033;-71
2022/05/17 12:50:00;;;;;;;1.50;0.90;;;10.60;99.90;;;;;;5038053;28;20075;-71
2022/05/17 12:52:36;;;;;;;2.80;0.80;;;10.50;99.90;;;;;;5040100;28;20031;-71
2022/05/17 12:55:27;;;;;;;5.72;1.05;;;10.50;99.90;;;;;;5048707;28;20062;-71
2022/05/17 12:57:54;;;;;;;1.13;0.75;;;10.50;99.90;;;;;;5035050;28;20037;-71
2022/05/17 13:00:26;;;;;;;2.03;0.80;;;10.50;99.90;;;;;;5032141;28;20037;-71
2022/05/17 13:03:01;;;;;;;1.85;0.82;;;10.50;99.90;;;;;;5040347;28;20120;-71
2022/05/17 13:05:30;;;;;;;3.15;0.90;;;10.40;99.90;;;;;;5032086;28;20045;-72
2022/05/17 13:08:20;;;;;;;2.20;0.80;;;10.40;99.90;;;;;;5040641;28;20108;-71
2022/05/17 13:11:19;;;;;;;1.88;0.70;;;10.30;99.90;;;;;;5034533;28;20423;-71
2022/05/17 13:13:46;;;;;;;2.58;0.98;;;10.30;99.90;;;;;;5031039;28;20037;-71
2022/05/17 13:16:33;;;;;;;2.17;0.82;;;10.30;99.90;;;;;;5037824;28;20057;-72
2022/05/17 13:19:04;;;;;;;3.28;0.82;;;10.30;99.90;;;;;;5044209;28;20136;-72
2022/05/17 13:21:42;;;;;;;3.53;1.10;;;10.30;99.90;;;;;;5030560;28;20038;-71
2022/05/17 13:24:39;;;;;;;1.83;1.00;;;10.30;99.90;;;;;;5030106;28;20029;-71
2022/05/17 13:27:15;;;;;;;;;;;10.30;99.90;;;;;;5049670;28;20051;-71
2022/05/17 13:29:42;;;;;;;4.40;2.08;;;10.40;99.90;;;;;;5043034;28;19963;-71
2022/05/17 13:32:20;;;;;;;3.65;1.48;;;10.40;99.90;;;;;;5044165;28;20029;-70
2022/05/17 13:35:11;;;;;;;2.85;1.40;;;10.50;99.90;;;;;;5045632;28;20031;-71
2022/05/17 13:37:53;;;;;;;4.10;1.20;;;10.50;99.90;;;;;;5038213;28;20025;-70